Time;durP1;ratioP1;P1;durP2;ratioP2;P2;SDS_P1;SDS_P2;PMS_P1;PMS_P2;Temp;Humidity;BMP_temperature;BMP_pressure;BME280_temperature;BME280_humidity;BME280_pressure;Samples;Min_cycle;Max_cycle;Signal;HPM_P1;HPM_P2
2021/08/03 00:00:31;;;;;;;0.97;0.90;;;;;;;13.05;74.88;95575.50;5074537;28;20211;-77
2021/08/03 00:02:58;;;;;;;2.77;1.10;;;;;;;13.05;74.66;95570.28;5074845;28;20176;-78
2021/08/03 00:05:26;;;;;;;1.30;1.20;;;;;;;13.10;74.53;95565.41;5058213;28;20677;-77
2021/08/03 00:08:00;;;;;;;1.50;1.10;;;;;;;13.08;74.66;95564.78;5074953;28;20176;-79
2021/08/03 00:10:26;;;;;;;1.70;1.07;;;;;;;13.10;74.44;95565.41;5058125;28;20235;-78
2021/08/03 00:12:52;;;;;;;1.30;1.20;;;;;;;13.13;74.43;95564.28;5074743;28;20574;-78
2021/08/03 00:15:22;;;;;;;1.30;1.20;;;;;;;13.16;74.24;95556.94;5074924;28;20188;-78
2021/08/03 00:17:48;;;;;;;2.77;1.37;;;;;;;13.17;74.04;95553.38;5092781;28;20705;-78
2021/08/03 00:20:13;;;;;;;1.13;1.03;;;;;;;13.14;74.32;95551.06;5093006;28;20168;-78
2021/08/03 00:22:39;;;;;;;1.37;1.17;;;;;;;13.21;73.70;95559.09;5074715;28;20176;-78
2021/08/03 00:25:04;;;;;;;1.30;1.20;;;;;;;13.20;73.63;95545.25;5074530;28;20209;-78
2021/08/03 00:27:30;;;;;;;1.40;1.20;;;;;;;13.10;73.59;95547.16;5074962;28;20203;-78
2021/08/03 00:29:56;;;;;;;1.40;1.30;;;;;;;13.25;72.98;95549.94;5057970;28;20184;-78
2021/08/03 00:32:22;;;;;;;2.13;1.57;;;;;;;13.26;72.97;95542.00;5074750;28;20207;-78
2021/08/03 00:34:47;;;;;;;1.63;1.20;;;;;;;13.29;72.85;95540.84;5074570;28;20224;-77
2021/08/03 00:37:14;;;;;;;1.70;1.20;;;;;;;13.33;72.63;95539.50;5092810;28;20226;-78
2021/08/03 00:39:39;;;;;;;1.10;1.00;;;;;;;13.35;72.61;95542.00;5074852;28;20180;-78
2021/08/03 00:42:06;;;;;;;1.00;0.90;;;;;;;13.31;73.08;95533.66;5057878;28;20505;-78
2021/08/03 00:44:45;;;;;;;1.30;1.10;;;;;;;13.35;72.71;95539.38;5038025;28;20668;-77
2021/08/03 00:47:12;;;;;;;1.10;1.00;;;;;;;13.43;72.42;95536.72;5054549;28;20176;-78
2021/08/03 00:49:38;;;;;;;1.50;1.20;;;;;;;13.41;72.45;95536.09;5037869;28;20173;-77
2021/08/03 00:52:05;;;;;;;1.40;1.30;;;;;;;13.45;72.57;95540.81;5053988;28;20267;-78
2021/08/03 00:54:30;;;;;;;1.20;1.10;;;;;;;13.47;72.31;95535.44;5072316;28;20189;-78
2021/08/03 00:56:56;;;;;;;1.83;1.00;;;;;;;13.49;72.69;95542.09;5037442;28;20219;-77
2021/08/03 00:59:21;;;;;;;1.80;1.27;;;;;;;13.20;73.71;95534.81;5054310;28;20223;-77
2021/08/03 01:01:47;;;;;;;3.70;1.50;;;;;;;13.40;73.05;95543.09;5053658;28;20648;-78
2021/08/03 01:04:14;;;;;;;2.43;1.10;;;;;;;13.43;73.14;95539.34;5037556;28;20243;-77
2021/08/03 01:06:44;;;;;;;2.30;1.30;;;;;;;13.46;73.13;95539.03;5036886;28;20684;-76
2021/08/03 01:09:19;;;;;;;1.77;1.10;;;;;;;13.42;73.33;95545.53;5037221;28;20545;-77
2021/08/03 01:12:15;;;;;;;1.40;1.23;;;;;;;13.45;72.92;95542.63;5053731;28;20648;-77
2021/08/03 01:14:59;;;;;;;1.23;1.13;;;;;;;13.44;73.29;95541.00;5015803;28;20205;-77
2021/08/03 01:17:37;;;;;;;1.97;1.20;;;;;;;13.47;72.88;95544.06;5053764;28;20173;-77
2021/08/03 01:20:09;;;;;;;1.10;1.00;;;;;;;13.54;72.75;95547.66;5071968;28;20621;-78
2021/08/03 01:23:12;;;;;;;3.17;1.10;;;;;;;13.59;72.42;95547.97;5054225;28;20177;-78
2021/08/03 01:25:59;;;;;;;1.20;1.10;;;;;;;13.62;72.31;95548.63;5071678;28;20687;-76
2021/08/03 01:28:28;;;;;;;1.43;1.20;;;;;;;13.67;72.31;95554.16;5054822;28;20639;-77
2021/08/03 01:31:18;;;;;;;1.10;1.00;;;;;;;13.65;72.34;95545.69;5040523;28;20279;-77
2021/08/03 01:33:47;;;;;;;2.10;1.20;;;;;;;13.64;72.25;95544.88;5062371;28;20201;-78
2021/08/03 01:36:12;;;;;;;1.40;1.20;;;;;;;13.63;72.48;95545.03;5040522;28;20193;-78
2021/08/03 01:38:39;;;;;;;1.47;1.23;;;;;;;13.62;72.27;95551.25;5057317;28;20181;-77
2021/08/03 01:41:07;;;;;;;2.13;1.23;;;;;;;13.60;72.38;95547.00;5040564;28;20193;-77
2021/08/03 01:43:34;;;;;;;1.30;1.20;;;;;;;13.58;72.52;95545.53;5040142;28;20188;-77
2021/08/03 01:45:59;;;;;;;1.27;1.17;;;;;;;13.61;72.70;95542.59;5056816;28;20236;-76
2021/08/03 01:48:25;;;;;;;3.10;1.30;;;;;;;13.61;72.65;95542.59;5040205;28;20193;-77
2021/08/03 01:50:53;;;;;;;1.50;1.40;;;;;;;13.59;72.83;95549.75;5056783;28;20188;-77
2021/08/03 01:53:19;;;;;;;1.30;1.20;;;;;;;13.60;72.90;95543.56;5056945;28;20178;-77
2021/08/03 01:55:45;;;;;;;2.03;1.50;;;;;;;13.60;72.91;95538.34;5040128;28;20703;-77
2021/08/03 01:58:13;;;;;;;1.67;1.47;;;;;;;13.40;73.94;95540.50;5040048;28;20649;-78
2021/08/03 02:00:38;;;;;;;1.77;1.30;;;;;;;13.54;73.35;95531.19;5039599;28;20192;-77
2021/08/03 02:03:04;;;;;;;2.77;1.17;;;;;;;13.55;73.56;95531.03;5056665;28;20326;-77
2021/08/03 02:05:30;;;;;;;1.40;1.30;;;;;;;13.55;73.55;95531.03;5039855;28;20213;-78
2021/08/03 02:07:55;;;;;;;1.77;1.33;;;;;;;13.53;73.57;95527.78;5056586;28;20543;-77
2021/08/03 02:10:21;;;;;;;1.50;1.40;;;;;;;13.52;73.79;95525.34;5039936;28;20173;-77
2021/08/03 02:12:50;;;;;;;1.30;1.20;;;;;;;13.50;73.78;95525.47;5056530;28;20227;-77
2021/08/03 02:15:16;;;;;;;1.87;1.20;;;;;;;13.48;74.25;95516.19;5039647;28;20688;-78
2021/08/03 02:17:41;;;;;;;1.70;1.50;;;;;;;13.51;73.63;95521.06;5056426;28;20230;-78
2021/08/03 02:20:07;;;;;;;3.63;1.17;;;;;;;13.48;74.30;95508.38;5039869;28;20587;-78
2021/08/03 02:22:33;;;;;;;1.20;1.13;;;;;;;13.45;74.30;95509.53;5056388;28;20173;-78
2021/08/03 02:24:58;;;;;;;1.53;1.43;;;;;;;13.49;73.95;95502.97;5039475;28;20247;-76
2021/08/03 02:27:23;;;;;;;1.87;1.20;;;;;;;13.51;73.76;95500.19;5056291;28;20204;-77
2021/08/03 02:29:49;;;;;;;2.37;1.53;;;;;;;13.54;73.70;95498.09;5039450;28;20185;-76
2021/08/03 02:32:22;;;;;;;1.27;1.17;;;;;;;13.44;74.14;95510.50;5039608;28;20181;-77
2021/08/03 02:34:52;;;;;;;2.37;1.30;;;;;;;13.41;73.93;95504.78;5039301;28;20204;-77
2021/08/03 02:37:20;;;;;;;2.10;1.23;;;;;;;13.35;74.24;95503.69;5056067;28;20537;-77
2021/08/03 02:39:49;;;;;;;1.30;1.20;;;;;;;13.37;74.28;95506.13;5056206;28;20188;-78
2021/08/03 02:42:14;;;;;;;1.60;1.37;;;;;;;13.32;74.21;95502.19;5038988;28;20192;-78
2021/08/03 02:44:41;;;;;;;1.97;1.40;;;;;;;13.24;74.42;95499.59;5039250;28;20197;-77
2021/08/03 02:47:25;;;;;;;4.93;1.60;;;;;;;13.17;75.24;95493.41;5055926;28;20201;-77
2021/08/03 02:49:52;;;;;;;1.50;1.40;;;;;;;13.19;74.82;95490.63;5041792;28;20283;-78
2021/08/03 02:52:19;;;;;;;1.30;1.20;;;;;;;13.17;74.91;95489.97;5055750;28;20185;-77
2021/08/03 02:54:56;;;;;;;1.40;1.30;;;;;;;13.09;74.99;95492.59;5055544;28;20292;-77
2021/08/03 02:57:23;;;;;;;2.60;1.40;;;;;;;13.09;74.98;95498.63;5055763;28;20555;-78
2021/08/03 02:59:51;;;;;;;1.50;1.40;;;;;;;13.05;75.10;95492.09;5039120;28;20652;-77
2021/08/03 03:02:18;;;;;;;1.13;0.93;;;;;;;12.95;75.37;95484.44;5054968;28;20173;-78
2021/08/03 03:04:54;;;;;;;1.50;1.40;;;;;;;13.04;75.00;95487.84;5038854;28;20201;-77
2021/08/03 03:07:25;;;;;;;2.93;1.53;;;;;;;12.98;75.66;95486.72;5055649;28;20188;-78
2021/08/03 03:09:53;;;;;;;2.50;1.30;;;;;;;12.96;75.53;95482.66;5055410;28;20174;-77
2021/08/03 03:12:18;;;;;;;1.20;0.90;;;;;;;12.89;75.78;95481.66;5038515;28;20272;-77
2021/08/03 03:14:44;;;;;;;2.50;1.30;;;;;;;12.81;76.46;95492.09;5072845;28;20254;-77
2021/08/03 03:17:10;;;;;;;2.40;1.47;;;;;;;12.88;76.11;95475.63;5055273;28;20189;-77
2021/08/03 03:19:37;;;;;;;1.80;1.50;;;;;;;12.84;76.19;95474.34;5055191;28;20203;-76
2021/08/03 03:22:04;;;;;;;1.20;1.10;;;;;;;12.42;77.95;95474.47;5055053;28;20181;-77
2021/08/03 03:24:32;;;;;;;2.27;1.30;;;;;;;12.34;78.68;95470.06;5055092;28;20656;-76
2021/08/03 03:26:58;;;;;;;3.90;1.30;;;;;;;12.30;78.69;95471.38;5054930;28;20679;-78
2021/08/03 03:29:24;;;;;;;1.53;1.30;;;;;;;12.66;77.25;95471.09;5054958;28;20185;-77
2021/08/03 03:31:51;;;;;;;1.50;1.23;;;;;;;12.60;77.27;95463.91;5054659;28;20177;-76
2021/08/03 03:34:17;;;;;;;3.37;1.50;;;;;;;12.61;77.21;95466.34;5038460;28;20184;-78
2021/08/03 03:36:44;;;;;;;2.00;1.50;;;;;;;12.53;77.87;95465.53;5038367;28;20197;-77
2021/08/03 03:39:11;;;;;;;1.50;1.40;;;;;;;12.56;77.70;95465.22;5038244;28;20185;-78
2021/08/03 03:41:37;;;;;;;2.07;1.60;;;;;;;12.58;77.49;95466.69;5054728;28;20580;-76
2021/08/03 03:44:05;;;;;;;1.53;1.40;;;;;;;12.57;77.20;95459.03;5037961;28;20211;-75
2021/08/03 03:46:40;;;;;;;1.37;1.17;;;;;;;12.59;76.68;95452.69;5054590;28;20217;-76
2021/08/03 03:49:08;;;;;;;2.70;1.33;;;;;;;12.59;76.29;95452.69;5054851;28;20628;-77
2021/08/03 03:51:36;;;;;;;1.47;1.37;;;;;;;12.68;75.62;95448.28;5037366;28;20184;-77
2021/08/03 03:54:03;;;;;;;1.40;1.30;;;;;;;12.45;76.37;95450.69;5038118;28;20184;-77
2021/08/03 03:56:37;;;;;;;2.17;1.50;;;;;;;12.29;77.69;95443.72;5054473;28;20217;-76
2021/08/03 03:59:03;;;;;;;1.30;1.20;;;;;;;12.51;76.85;95447.47;5054503;28;20594;-76
2021/08/03 04:01:29;;;;;;;3.10;1.47;;;;;;;12.61;76.42;95453.31;5054030;28;20240;-77
2021/08/03 04:03:59;;;;;;;3.93;1.60;;;;;;;12.70;75.75;95451.53;5054275;28;20203;-76
2021/08/03 04:06:25;;;;;;;1.53;1.40;;;;;;;12.67;76.29;95459.69;5054305;28;20201;-78
2021/08/03 04:08:50;;;;;;;1.80;1.57;;;;;;;12.60;76.15;95459.50;5072271;28;20315;-77
2021/08/03 04:11:16;;;;;;;2.17;1.40;;;;;;;12.62;75.93;95457.56;5037506;28;20208;-77
2021/08/03 04:13:43;;;;;;;3.33;1.43;;;;;;;12.56;76.71;95457.41;5054155;28;20173;-77
2021/08/03 04:16:09;;;;;;;2.47;1.80;;;;;;;12.53;76.64;95450.72;5037455;28;20246;-78
2021/08/03 04:18:34;;;;;;;3.73;1.60;;;;;;;12.55;76.62;95454.00;5054488;28;20207;-77
2021/08/03 04:20:59;;;;;;;1.40;1.20;;;;;;;12.64;75.91;95453.03;5053816;28;20181;-78
2021/08/03 04:23:24;;;;;;;1.37;1.13;;;;;;;12.67;75.75;95451.88;5037335;28;20224;-77
2021/08/03 04:25:50;;;;;;;1.57;1.30;;;;;;;12.59;75.84;95457.06;5053386;28;20300;-78
2021/08/03 04:28:15;;;;;;;1.47;1.30;;;;;;;12.59;76.04;95459.69;5036599;28;20623;-78
2021/08/03 04:30:40;;;;;;;1.50;1.40;;;;;;;12.60;75.60;95458.69;5053482;28;20177;-78
2021/08/03 04:33:06;;;;;;;1.63;1.20;;;;;;;12.66;75.48;95458.06;5053782;28;20701;-77
2021/08/03 04:35:31;;;;;;;1.20;1.10;;;;;;;12.67;75.22;95460.50;5036984;28;20315;-78
2021/08/03 04:37:56;;;;;;;1.77;1.50;;;;;;;12.76;75.27;95454.31;5053817;28;20264;-77
2021/08/03 04:40:22;;;;;;;1.20;1.10;;;;;;;12.74;75.18;95453.66;5053866;28;20256;-78
2021/08/03 04:42:48;;;;;;;2.40;1.20;;;;;;;12.79;74.76;95453.16;5036703;28;20311;-77
2021/08/03 04:45:13;;;;;;;2.70;1.17;;;;;;;12.69;75.04;95458.53;5071612;28;20209;-77
2021/08/03 04:47:40;;;;;;;2.07;1.50;;;;;;;12.82;74.30;95459.88;5053715;28;20200;-77
2021/08/03 04:50:07;;;;;;;1.83;1.10;;;;;;;12.83;74.10;95446.66;5036844;28;20181;-78
2021/08/03 04:52:32;;;;;;;3.93;1.50;;;;;;;12.91;73.27;95454.47;5071521;28;20271;-78
2021/08/03 04:54:57;;;;;;;3.13;1.10;;;;;;;12.93;73.45;95443.88;5053501;28;20255;-77
2021/08/03 04:57:22;;;;;;;1.77;1.27;;;;;;;13.04;73.05;95446.16;5053423;28;20644;-77
2021/08/03 04:59:48;;;;;;;1.47;1.20;;;;;;;13.07;72.64;95442.38;5037002;28;20208;-77
2021/08/03 05:02:13;;;;;;;1.00;0.90;;;;;;;13.14;71.78;95449.38;5053447;28;20174;-78
2021/08/03 05:04:38;;;;;;;2.43;1.37;;;;;;;13.16;71.57;95452.63;5056843;28;20191;-78
2021/08/03 05:07:04;;;;;;;1.77;1.23;;;;;;;13.16;71.66;95446.59;5057603;28;20207;-78
2021/08/03 05:09:30;;;;;;;1.20;1.10;;;;;;;13.27;70.99;95447.13;5041063;28;20205;-78
2021/08/03 05:11:55;;;;;;;1.30;1.20;;;;;;;13.30;71.27;95452.00;5057338;28;20212;-78
2021/08/03 05:14:21;;;;;;;1.50;1.10;;;;;;;13.28;71.15;95448.75;5057324;28;20181;-78
2021/08/03 05:16:46;;;;;;;1.80;1.50;;;;;;;13.31;71.45;95451.00;5057599;28;20192;-78
2021/08/03 05:19:11;;;;;;;1.87;1.20;;;;;;;13.35;71.46;95445.47;5057314;28;20291;-78
2021/08/03 05:21:37;;;;;;;2.30;1.20;;;;;;;13.29;72.11;95450.38;5074975;28;20676;-78
2021/08/03 05:24:02;;;;;;;2.27;1.40;;;;;;;13.17;73.76;95449.06;5075277;28;20637;-78
2021/08/03 05:26:27;;;;;;;1.67;1.30;;;;;;;13.33;73.94;95443.03;5074970;28;20307;-76
2021/08/03 05:28:53;;;;;;;2.60;1.43;;;;;;;13.37;73.98;95439.13;5057314;28;20213;-78
2021/08/03 05:31:18;;;;;;;3.27;1.37;;;;;;;13.46;73.60;95442.50;5074392;28;20181;-77
2021/08/03 05:33:43;;;;;;;1.70;1.20;;;;;;;13.50;73.19;95430.75;5057239;28;20216;-78
2021/08/03 05:36:09;;;;;;;1.50;1.20;;;;;;;13.52;72.89;95434.84;5057070;28;20267;-78
2021/08/03 05:38:34;;;;;;;1.30;1.20;;;;;;;13.66;72.46;95430.69;5057158;28;20286;-78
2021/08/03 05:40:59;;;;;;;1.73;1.13;;;;;;;13.87;72.18;95436.16;5057299;28;20656;-78
2021/08/03 05:43:24;;;;;;;3.07;1.20;;;;;;;14.12;71.66;95436.00;5040001;28;20608;-77
2021/08/03 05:45:50;;;;;;;1.77;1.20;;;;;;;14.11;70.62;95439.63;5056851;28;20212;-78
2021/08/03 05:48:15;;;;;;;1.10;1.10;;;;;;;14.59;69.49;95448.97;5040269;28;20181;-78
2021/08/03 05:50:40;;;;;;;2.53;1.30;;;;;;;15.17;66.25;95454.53;5039986;28;20218;-77
2021/08/03 05:53:06;;;;;;;1.37;1.27;;;;;;;15.58;64.96;95447.09;5056783;28;20186;-78
2021/08/03 05:55:31;;;;;;;1.43;1.20;;;;;;;15.75;64.53;95443.31;5056085;28;20245;-78
2021/08/03 05:57:56;;;;;;;1.13;1.13;;;;;;;15.91;62.66;95446.75;5039069;28;20299;-78
2021/08/03 06:00:22;;;;;;;1.05;1.05;;;;;;;16.40;61.98;95450.31;5055613;28;20648;-78
2021/08/03 06:02:47;;;;;;;2.67;1.30;;;;;;;16.84;59.81;95453.78;5055833;28;20208;-78
2021/08/03 06:05:12;;;;;;;1.58;1.48;;;;;;;16.93;60.05;95456.09;5055678;28;20197;-78
2021/08/03 06:07:41;;;;;;;3.50;1.20;;;;;;;17.09;59.98;95455.03;5055849;28;20181;-78
2021/08/03 06:10:11;;;;;;;5.90;1.48;;;;;;;17.85;58.18;95441.19;5055907;28;20232;-78
2021/08/03 06:12:38;;;;;;;2.63;1.27;;;;;;;17.57;59.92;95452.50;5039211;28;20192;-78
2021/08/03 06:15:03;;;;;;;3.20;1.30;;;;;;;18.17;58.09;95452.84;5055104;28;20696;-78
2021/08/03 06:17:34;;;;;;;2.72;1.27;;;;;;;17.93;57.77;95449.69;5039596;28;20260;-78
2021/08/03 06:19:59;;;;;;;2.00;1.10;;;;;;;17.67;59.21;95450.38;5039497;28;20184;-78
2021/08/03 06:22:26;;;;;;;2.08;1.17;;;;;;;18.08;58.40;95457.44;5055695;28;20181;-78
2021/08/03 06:24:51;;;;;;;0.90;0.90;;;;;;;18.24;57.35;95458.94;5055756;28;20673;-78
2021/08/03 06:27:18;;;;;;;1.25;1.05;;;;;;;18.16;57.78;95454.66;5073190;28;20224;-79
2021/08/03 06:29:44;;;;;;;1.77;1.10;;;;;;;18.90;54.41;95457.28;5055524;28;20672;-77
2021/08/03 06:32:10;;;;;;;1.35;1.00;;;;;;;19.06;53.99;95461.34;5038482;28;20181;-78
2021/08/03 06:34:43;;;;;;;4.15;1.15;;;;;;;19.16;52.27;95451.22;5054949;28;20173;-77
2021/08/03 06:37:09;;;;;;;1.25;0.95;;;;;;;18.98;53.09;95447.56;5074010;28;20620;-77
2021/08/03 06:39:35;;;;;;;1.27;0.90;;;;;;;19.05;52.97;95446.56;5058779;28;20543;-78
2021/08/03 06:42:35;;;;;;;2.13;1.05;;;;;;;18.85;54.66;95451.81;5093268;28;20172;-78
2021/08/03 06:45:10;;;;;;;2.00;1.10;;;;;;;18.26;55.63;95455.09;5071376;28;20212;-78
2021/08/03 06:48:00;;;;;;;1.25;1.15;;;;;;;18.12;56.13;95456.06;5094334;28;20164;-78
2021/08/03 06:50:31;;;;;;;1.23;1.13;;;;;;;17.62;58.71;95451.94;5076660;28;20176;-78
2021/08/03 06:52:56;;;;;;;1.20;1.00;;;;;;;17.83;58.13;95460.56;5096671;28;20160;-77
2021/08/03 06:55:32;;;;;;;1.42;1.33;;;;;;;17.67;58.93;95453.00;5063628;28;1016886;-76
2021/08/03 06:58:03;;;;;;;1.50;1.20;;;;;;;18.05;58.27;95447.34;5099888;28;20164;-76
2021/08/03 07:00:37;;;;;;;1.33;1.23;;;;;;;18.38;56.39;95450.91;5117868;28;20181;-75
2021/08/03 07:03:02;;;;;;;0.85;0.85;;;;;;;18.40;56.00;95440.19;5083352;28;20180;-77
2021/08/03 07:05:29;;;;;;;1.23;1.10;;;;;;;19.05;54.54;95453.66;5081989;28;20207;-77
2021/08/03 07:07:59;;;;;;;2.28;1.13;;;;;;;18.81;55.32;95445.31;5059251;28;20181;-77
2021/08/03 07:10:26;;;;;;;1.55;1.02;;;;;;;19.16;53.13;95453.03;5075688;28;20177;-76
2021/08/03 07:12:53;;;;;;;1.60;1.10;;;;;;;20.20;51.78;95450.41;5076089;28;20175;-77
2021/08/03 07:15:20;;;;;;;2.60;1.00;;;;;;;20.93;49.97;95456.09;5075986;28;20263;-76
2021/08/03 07:17:47;;;;;;;2.28;0.90;;;;;;;20.83;49.84;95457.59;5094024;28;20715;-77
2021/08/03 07:20:12;;;;;;;1.30;1.20;;;;;;;20.28;51.49;95459.91;5088282;28;20203;-77
2021/08/03 07:22:38;;;;;;;1.35;1.05;;;;;;;20.37;51.24;95462.09;5095759;28;20641;-77
2021/08/03 07:25:05;;;;;;;2.40;1.00;;;;;;;20.04;52.70;95464.03;5080360;28;20215;-76
2021/08/03 07:27:30;;;;;;;1.10;1.00;;;;;;;20.33;52.06;95463.53;5079137;28;20179;-77
2021/08/03 07:29:55;;;;;;;2.85;1.05;;;;;;;20.28;52.23;95460.72;5079586;28;20183;-77
2021/08/03 07:32:21;;;;;;;2.88;1.20;;;;;;;19.61;53.87;95471.66;5068240;28;20639;-77
2021/08/03 07:34:46;;;;;;;1.08;0.98;;;;;;;19.62;52.75;95468.03;5089890;28;20675;-77
2021/08/03 07:37:12;;;;;;;1.67;1.10;;;;;;;19.83;52.72;95474.88;5087050;28;20644;-78
2021/08/03 07:39:38;;;;;;;2.65;1.10;;;;;;;19.15;55.13;95470.66;5074379;28;20187;-77
2021/08/03 07:42:04;;;;;;;1.17;0.93;;;;;;;19.56;54.61;95467.00;5074505;28;20169;-78
2021/08/03 07:44:29;;;;;;;1.70;1.20;;;;;;;19.48;54.48;95470.63;5074649;28;20176;-77
2021/08/03 07:46:55;;;;;;;2.65;1.23;;;;;;;19.16;56.43;95472.25;5075349;28;20208;-77
2021/08/03 07:49:20;;;;;;;1.50;1.20;;;;;;;19.05;55.99;95482.59;5081594;28;20326;-77
2021/08/03 07:51:47;;;;;;;1.67;1.25;;;;;;;18.90;55.54;95488.84;5051585;28;20303;-76
2021/08/03 07:54:12;;;;;;;1.75;1.33;;;;;;;19.04;55.95;95486.25;5070883;28;20173;-75
2021/08/03 07:56:38;;;;;;;1.75;1.10;;;;;;;18.83;55.43;95490.69;5052714;28;20200;-76
2021/08/03 07:59:03;;;;;;;1.45;1.35;;;;;;;18.78;56.41;95493.09;5052166;28;20177;-77
2021/08/03 08:01:28;;;;;;;1.10;1.00;;;;;;;18.75;55.85;95501.38;5070268;28;20653;-77
2021/08/03 08:03:54;;;;;;;1.35;0.90;;;;;;;18.99;56.07;95514.97;5070562;28;20193;-76
2021/08/03 08:06:19;;;;;;;1.38;1.15;;;;;;;18.57;57.66;95504.56;5078959;28;20218;-78
2021/08/03 08:08:44;;;;;;;1.20;1.00;;;;;;;18.36;58.25;95508.09;5099753;28;20196;-77
2021/08/03 08:11:10;;;;;;;1.58;1.48;;;;;;;18.35;58.75;95514.38;5053576;28;20205;-76
2021/08/03 08:13:35;;;;;;;2.40;1.25;;;;;;;17.75;59.53;95522.94;5071037;28;20176;-76
2021/08/03 08:16:01;;;;;;;2.22;1.20;;;;;;;17.50;59.84;95528.63;5053999;28;20529;-76
2021/08/03 08:18:26;;;;;;;2.72;1.17;;;;;;;17.08;62.10;95524.25;5037237;28;20578;-76
2021/08/03 08:20:51;;;;;;;1.38;1.17;;;;;;;17.02;61.77;95524.97;5054186;28;20762;-78
2021/08/03 08:23:17;;;;;;;2.10;1.33;;;;;;;16.78;63.38;95520.09;5053902;28;20223;-77
2021/08/03 08:25:42;;;;;;;1.85;1.30;;;;;;;16.90;62.46;95518.63;5071854;28;20204;-77
2021/08/03 08:28:08;;;;;;;2.13;1.27;;;;;;;16.98;62.05;95515.88;5054278;28;20746;-78
2021/08/03 08:30:35;;;;;;;1.50;1.05;;;;;;;17.10;62.55;95516.19;5054678;28;20576;-77
2021/08/03 08:33:00;;;;;;;3.65;1.40;;;;;;;16.98;62.32;95514.06;5037448;28;20208;-77
2021/08/03 08:35:26;;;;;;;1.25;1.10;;;;;;;16.73;62.18;95514.63;5053970;28;20216;-76
2021/08/03 08:37:52;;;;;;;1.48;1.05;;;;;;;16.51;62.86;95511.09;5037126;28;20723;-78
2021/08/03 08:40:17;;;;;;;1.50;1.00;;;;;;;16.26;64.05;95514.06;5037486;28;20179;-77
2021/08/03 08:42:43;;;;;;;2.40;1.23;;;;;;;16.18;65.32;95515.97;5053688;28;20672;-77
2021/08/03 08:45:09;;;;;;;2.63;1.10;;;;;;;15.85;66.39;95508.50;5053944;28;20200;-77
2021/08/03 08:47:36;;;;;;;1.75;0.90;;;;;;;15.67;66.46;95518.53;5053669;28;20663;-76
2021/08/03 08:50:05;;;;;;;1.27;1.00;;;;;;;15.17;67.47;95512.06;5053972;28;20191;-78
2021/08/03 08:52:33;;;;;;;0.73;0.73;;;;;;;15.01;69.43;95528.72;5071731;28;20250;-77
2021/08/03 08:54:59;;;;;;;0.90;0.90;;;;;;;14.90;69.64;95527.31;5053758;28;20235;-78
2021/08/03 08:57:24;;;;;;;1.27;0.90;;;;;;;14.78;70.94;95523.50;5053564;28;20628;-77
2021/08/03 08:59:49;;;;;;;2.10;1.00;;;;;;;14.65;71.98;95524.06;5054171;28;20234;-77
2021/08/03 09:02:15;;;;;;;0.90;0.90;;;;;;;14.62;73.13;95531.44;5036894;28;20181;-77
2021/08/03 09:04:42;;;;;;;1.38;1.00;;;;;;;14.66;73.01;95524.88;5037282;28;20220;-77
2021/08/03 09:07:08;;;;;;;1.00;0.90;;;;;;;14.56;73.88;95524.28;5037574;28;20201;-76
2021/08/03 09:09:44;;;;;;;1.00;1.00;;;;;;;14.62;74.64;95528.81;5053341;28;20192;-77
2021/08/03 09:12:12;;;;;;;1.35;1.02;;;;;;;14.58;74.01;95523.16;5053694;28;20284;-77
2021/08/03 09:14:43;;;;;;;3.05;1.10;;;;;;;14.59;75.22;95540.44;5053544;28;20215;-77
2021/08/03 09:17:09;;;;;;;1.17;1.00;;;;;;;14.55;74.39;95522.66;5071319;28;20271;-77
2021/08/03 09:19:39;;;;;;;1.10;1.00;;;;;;;14.20;76.39;95523.94;5053658;28;20185;-78
2021/08/03 09:22:22;;;;;;;1.40;1.10;;;;;;;14.23;75.90;95524.44;5053843;28;20197;-78
2021/08/03 09:24:51;;;;;;;0.97;0.93;;;;;;;14.20;76.08;95529.19;5072127;28;20193;-78
2021/08/03 09:27:30;;;;;;;1.00;0.90;;;;;;;14.59;75.63;95529.19;5037341;28;20662;-78
2021/08/03 09:29:55;;;;;;;2.13;1.27;;;;;;;14.37;76.05;95535.94;5054035;28;20177;-79
2021/08/03 09:32:31;;;;;;;1.00;1.00;;;;;;;14.56;75.00;95537.34;5054000;28;20185;-77
2021/08/03 09:35:09;;;;;;;2.07;0.93;;;;;;;14.62;75.10;95527.03;5053683;28;20707;-77
2021/08/03 09:37:35;;;;;;;3.07;1.10;;;;;;;14.62;74.65;95537.47;5053723;28;20275;-77
2021/08/03 09:40:02;;;;;;;1.20;0.90;;;;;;;14.54;75.45;95544.56;5054190;28;20212;-77
2021/08/03 09:42:27;;;;;;;2.47;1.30;;;;;;;14.68;76.22;95543.81;5053734;28;20207;-79
2021/08/03 09:44:57;;;;;;;1.20;1.00;;;;;;;14.82;76.47;95544.88;5053636;28;20189;-77
2021/08/03 09:47:23;;;;;;;1.83;1.00;;;;;;;15.04;75.37;95551.09;5053816;28;20258;-77
2021/08/03 09:49:51;;;;;;;2.63;1.17;;;;;;;15.07;73.76;95548.94;5055478;28;20195;-79
2021/08/03 09:52:27;;;;;;;4.60;1.20;;;;;;;15.31;73.99;95545.31;5057501;28;20169;-79
2021/08/03 09:55:20;;;;;;;2.10;1.00;;;;;;;15.25;74.37;95546.03;5057384;28;20189;-77
2021/08/03 09:57:47;;;;;;;1.63;1.05;;;;;;;15.55;73.14;95545.09;5071457;28;20185;-78
2021/08/03 10:00:25;;;;;;;1.30;1.20;;;;;;;15.87;72.43;95543.16;5057520;28;20539;-79
2021/08/03 10:02:52;;;;;;;1.40;1.05;;;;;;;16.32;71.02;95523.00;5074863;28;20215;-78
2021/08/03 10:05:19;;;;;;;3.10;1.27;;;;;;;16.37;70.53;95520.66;5057225;28;20222;-78
2021/08/03 10:07:44;;;;;;;3.38;1.27;;;;;;;16.31;71.51;95509.06;5056605;28;20177;-78
2021/08/03 10:10:10;;;;;;;1.67;0.82;;;;;;;16.52;70.96;95494.38;5040310;28;20208;-77
2021/08/03 10:12:35;;;;;;;3.35;1.05;;;;;;;16.24;71.40;95483.78;5075232;28;20264;-78
2021/08/03 10:15:02;;;;;;;1.55;1.00;;;;;;;16.35;71.80;95467.63;5057056;28;20707;-79
2021/08/03 10:17:27;;;;;;;1.20;1.08;;;;;;;16.22;73.58;95449.13;5057134;28;20193;-79
2021/08/03 10:19:58;;;;;;;1.20;1.10;;;;;;;15.94;75.80;95455.03;5040470;28;20263;-78
2021/08/03 10:22:55;;;;;;;1.75;1.40;;;;;;;15.55;76.96;95466.59;5056522;28;20645;-78
2021/08/03 10:25:22;;;;;;;1.90;1.10;;;;;;;15.72;76.84;95466.41;4992815;28;20215;-78
2021/08/03 10:27:49;;;;;;;1.73;1.60;;;;;;;15.89;76.24;95462.63;4976578;28;20180;-78
2021/08/03 10:30:27;;;;;;;3.05;1.80;;;;;;;15.93;76.58;95465.69;4992929;28;20215;-78
2021/08/03 10:32:53;;;;;;;2.30;1.73;;;;;;;16.05;75.85;95459.81;4992446;28;20180;-78
2021/08/03 10:35:19;;;;;;;2.47;2.17;;;;;;;16.13;76.09;95466.75;4976652;28;20659;-78
2021/08/03 10:37:56;;;;;;;2.75;2.10;;;;;;;16.43;75.94;95468.31;4976758;28;20203;-77
2021/08/03 10:40:48;;;;;;;2.80;1.70;;;;;;;16.91;74.82;95462.53;4992573;28;20180;-78
2021/08/03 10:43:14;;;;;;;3.13;2.83;;;;;;;17.34;76.56;95470.34;4992134;28;20187;-78
2021/08/03 10:45:40;;;;;;;3.92;3.63;;;;;;;17.68;74.04;95473.00;4976257;28;20212;-78
2021/08/03 10:48:06;;;;;;;2.80;1.90;;;;;;;17.70;75.00;95463.13;4976061;28;20331;-78
2021/08/03 10:50:32;;;;;;;1.45;1.35;;;;;;;18.00;73.42;95452.38;4976054;28;20278;-78
2021/08/03 10:53:02;;;;;;;1.67;1.58;;;;;;;17.65;73.62;95451.56;5026744;28;20689;-78
2021/08/03 10:55:43;;;;;;;3.22;1.90;;;;;;;18.16;70.90;95448.59;4999193;28;20217;-78
2021/08/03 10:58:08;;;;;;;3.55;1.73;;;;;;;18.19;72.04;95458.69;5015249;28;20179;-78
2021/08/03 11:00:39;;;;;;;2.78;1.73;;;;;;;18.24;70.88;95451.06;5059815;28;20184;-78
2021/08/03 11:03:30;;;;;;;1.88;1.60;;;;;;;18.37;69.48;95440.56;5095527;28;20180;-78
2021/08/03 11:06:11;;;;;;;1.23;1.13;;;;;;;18.76;70.10;95437.25;5096080;28;20203;-78
2021/08/03 11:08:40;;;;;;;1.50;1.40;;;;;;;18.24;67.94;95428.19;5095814;28;20186;-76
2021/08/03 11:11:13;;;;;;;2.10;1.40;;;;;;;18.40;67.07;95433.09;5096233;28;20172;-77
2021/08/03 11:13:44;;;;;;;1.67;1.58;;;;;;;18.75;67.62;95425.09;5113935;28;20278;-77
2021/08/03 11:16:32;;;;;;;1.60;1.50;;;;;;;18.89;65.18;95429.34;5114166;28;20258;-79
2021/08/03 11:19:03;;;;;;;1.50;1.00;;;;;;;18.71;64.01;95430.94;5095703;28;20176;-79
2021/08/03 11:21:30;;;;;;;2.88;1.27;;;;;;;19.00;64.95;95435.03;5095823;28;20168;-79
2021/08/03 11:24:04;;;;;;;2.65;1.25;;;;;;;18.10;64.65;95437.84;5083871;28;20522;-76
2021/08/03 11:26:38;;;;;;;2.70;1.60;;;;;;;18.46;65.44;95443.81;5093399;28;20211;-78
2021/08/03 11:29:08;;;;;;;1.40;1.30;;;;;;;18.24;65.54;95438.72;5093637;28;20173;-79
2021/08/03 11:31:38;;;;;;;1.75;1.30;;;;;;;18.10;66.46;95426.53;5075068;28;20177;-78
2021/08/03 11:34:05;;;;;;;1.42;1.30;;;;;;;17.93;65.66;95428.69;5075406;28;20168;-78
2021/08/03 11:36:30;;;;;;;1.60;1.50;;;;;;;18.20;66.54;95429.63;5058604;28;20662;-77
2021/08/03 11:38:55;;;;;;;2.08;1.30;;;;;;;18.32;65.58;95421.97;5075355;28;20176;-78